createdAt,value
2019-06-10T00:02:06.928Z,16.70
2019-06-10T00:04:36.880Z,16.60
2019-06-10T00:07:07.351Z,16.60
2019-06-10T00:09:36.991Z,16.50
2019-06-10T00:12:08.179Z,16.50
2019-06-10T00:14:38.219Z,16.40
2019-06-10T00:17:08.069Z,16.40
2019-06-10T00:19:37.712Z,16.30
2019-06-10T00:22:08.424Z,16.30
2019-06-10T00:24:40.793Z,16.20
2019-06-10T00:27:11.775Z,16.10
2019-06-10T00:29:41.059Z,16.10
2019-06-10T00:32:13.219Z,16.00
2019-06-10T00:34:42.104Z,16.00
2019-06-10T00:37:14.637Z,15.90
2019-06-10T00:39:42.819Z,15.80
2019-06-10T00:42:15.240Z,15.80
2019-06-10T00:44:43.579Z,15.80
2019-06-10T00:47:15.063Z,15.70
2019-06-10T00:49:44.247Z,15.60
2019-06-10T00:52:14.094Z,15.60
2019-06-10T00:54:43.751Z,15.50
2019-06-10T00:57:13.800Z,15.50
2019-06-10T00:59:43.349Z,15.50
2019-06-10T01:02:14.432Z,15.40
2019-06-10T01:04:45.161Z,15.40
2019-06-10T01:07:15.082Z,15.30
2019-06-10T01:09:44.672Z,15.20
2019-06-10T01:12:15.016Z,15.20
2019-06-10T01:14:44.623Z,15.10
2019-06-10T01:17:15.373Z,15.10
2019-06-10T01:19:45.435Z,15.00
2019-06-10T01:22:15.864Z,15.00
2019-06-10T01:24:46.141Z,14.90
2019-06-10T01:27:15.639Z,14.80
2019-06-10T01:29:45.119Z,14.80
2019-06-10T01:32:15.074Z,14.80
2019-06-10T01:34:44.654Z,14.60
2019-06-10T01:37:14.757Z,14.60
2019-06-10T01:39:46.340Z,14.60
2019-06-10T01:42:17.109Z,14.60
2019-06-10T01:44:47.484Z,14.50
2019-06-10T01:47:17.599Z,14.40
2019-06-10T01:49:47.236Z,14.40
2019-06-10T01:52:18.206Z,14.30
2019-06-10T01:54:47.912Z,14.30
2019-06-10T01:57:18.576Z,14.30
2019-06-10T01:59:50.702Z,14.30
2019-06-10T02:02:23.652Z,14.30
2019-06-10T02:04:52.282Z,14.30
2019-06-10T02:07:23.122Z,14.20
2019-06-10T02:09:52.805Z,14.20
2019-06-10T02:12:24.100Z,14.20
2019-06-10T02:14:53.548Z,14.20
2019-06-10T02:17:24.301Z,14.20
2019-06-10T02:19:53.890Z,14.10
2019-06-10T02:22:24.421Z,14.10
2019-06-10T02:24:54.206Z,14.10
2019-06-10T02:27:23.808Z,14.10
2019-06-10T02:29:53.364Z,14.20
2019-06-10T02:32:31.594Z,14.20
2019-06-10T02:35:07.984Z,14.10
2019-06-10T02:37:31.834Z,14.10
2019-06-10T02:39:56.691Z,14.10
2019-06-10T02:42:30.398Z,14.10
2019-06-10T02:44:59.070Z,14.10
2019-06-10T02:47:33.476Z,14.20
2019-06-10T02:50:04.527Z,14.20
2019-06-10T02:52:34.367Z,14.20
2019-06-10T02:55:04.255Z,14.20
2019-06-10T02:57:39.760Z,14.20
2019-06-10T03:00:16.974Z,14.20
2019-06-10T03:02:44.557Z,14.20
2019-06-10T03:05:14.221Z,14.10
2019-06-10T03:07:44.387Z,14.10
2019-06-10T03:10:16.432Z,14.10
2019-06-10T03:12:45.735Z,14.10
2019-06-10T03:15:15.725Z,14.10
2019-06-10T03:17:45.504Z,14.00
2019-06-10T03:20:15.983Z,14.00
2019-06-10T03:22:45.560Z,14.00
2019-06-10T03:25:16.184Z,14.10
2019-06-10T03:27:45.841Z,14.10
2019-06-10T03:30:22.065Z,14.10
2019-06-10T03:32:47.710Z,14.10
2019-06-10T03:35:17.521Z,14.10
2019-06-10T03:37:47.062Z,14.10
2019-06-10T03:40:16.783Z,14.10
2019-06-10T03:42:46.667Z,14.10
2019-06-10T03:45:17.489Z,14.20
2019-06-10T03:47:47.081Z,14.20
2019-06-10T03:50:17.497Z,14.20
2019-06-10T03:52:47.049Z,14.10
2019-06-10T03:55:17.264Z,14.20
2019-06-10T03:57:46.907Z,14.20
2019-06-10T04:00:17.487Z,14.30
2019-06-10T04:02:47.163Z,14.40
2019-06-10T04:05:17.510Z,14.50
2019-06-10T04:07:47.053Z,14.50
2019-06-10T04:10:17.527Z,14.50
2019-06-10T04:12:47.151Z,14.40
2019-06-10T04:15:17.604Z,14.40
2019-06-10T04:17:47.376Z,14.50
2019-06-10T04:20:17.743Z,14.50
2019-06-10T04:22:47.312Z,14.40
2019-06-10T04:25:17.760Z,14.40
2019-06-10T04:27:47.339Z,14.50
2019-06-10T04:30:18.144Z,14.40
2019-06-10T04:32:47.847Z,14.50
2019-06-10T04:35:18.351Z,14.50
2019-06-10T04:37:47.940Z,14.60
2019-06-10T04:40:18.447Z,14.70
2019-06-10T04:42:48.034Z,14.70
2019-06-10T04:45:18.668Z,14.80
2019-06-10T04:47:48.299Z,14.70
2019-06-10T04:50:24.999Z,14.70
2019-06-10T04:52:49.018Z,14.80
2019-06-10T04:55:18.832Z,14.80
2019-06-10T04:57:48.410Z,14.80
2019-06-10T05:00:19.210Z,14.80
2019-06-10T05:02:48.799Z,14.80
2019-06-10T05:05:19.000Z,14.80
2019-06-10T05:07:48.617Z,14.90
2019-06-10T05:10:19.122Z,14.90
2019-06-10T05:12:48.696Z,15.00
2019-06-10T05:15:19.624Z,15.10
2019-06-10T05:17:49.180Z,15.10
2019-06-10T05:20:19.784Z,15.10
2019-06-10T05:22:49.464Z,15.20
2019-06-10T05:25:20.379Z,15.30
2019-06-10T05:27:52.134Z,15.30
2019-06-10T05:30:22.756Z,15.30
2019-06-10T05:32:52.563Z,15.50
2019-06-10T05:35:24.183Z,15.40
2019-06-10T05:37:53.412Z,15.40
2019-06-10T05:40:24.525Z,15.50
2019-06-10T05:42:54.246Z,15.50
2019-06-10T05:45:25.829Z,15.50
2019-06-10T05:47:54.902Z,15.50
2019-06-10T05:50:25.255Z,15.60
2019-06-10T05:52:55.576Z,15.70
2019-06-10T05:55:25.533Z,15.70
2019-06-10T05:57:55.067Z,15.80
2019-06-10T06:00:26.000Z,15.90
2019-06-10T06:02:55.636Z,16.10
2019-06-10T06:05:26.007Z,16.30
2019-06-10T06:08:04.782Z,16.50
2019-06-10T06:10:27.230Z,16.60
2019-06-10T06:12:56.955Z,16.80
2019-06-10T06:15:27.444Z,17.00
2019-06-10T06:18:07.160Z,17.10
2019-06-10T06:20:29.292Z,17.20
2019-06-10T06:22:59.860Z,17.40
2019-06-10T06:25:30.569Z,17.60
2019-06-10T06:28:02.863Z,17.80
2019-06-10T06:30:34.585Z,18.10
2019-06-10T06:33:03.165Z,18.50
2019-06-10T06:35:35.206Z,18.70
2019-06-10T06:38:04.360Z,18.60
2019-06-10T06:40:35.937Z,18.50
2019-06-10T06:43:05.069Z,18.50
2019-06-10T06:45:35.958Z,18.50
2019-06-10T06:48:05.834Z,18.50
2019-06-10T06:50:36.192Z,18.50
2019-06-10T06:53:20.975Z,18.70
2019-06-10T06:55:38.434Z,18.70
2019-06-10T06:58:09.138Z,18.70
2019-06-10T07:00:59.309Z,18.60
2019-06-10T07:03:09.899Z,18.50
2019-06-10T07:05:41.072Z,18.60
2019-06-10T07:08:13.190Z,18.60
2019-06-10T07:10:43.622Z,18.70
2019-06-10T07:13:13.244Z,19.00
2019-06-10T07:15:46.973Z,19.20
2019-06-10T07:18:16.219Z,19.40
2019-06-10T07:20:46.875Z,19.80
2019-06-10T07:23:16.551Z,20.00
2019-06-10T07:25:47.541Z,20.40
2019-06-10T07:28:17.299Z,20.60
2019-06-10T07:30:51.810Z,20.70
2019-06-10T07:33:18.033Z,21.20
2019-06-10T07:35:47.596Z,21.30
2019-06-10T07:38:17.164Z,21.20
2019-06-10T07:40:46.745Z,21.00
2019-06-10T07:43:16.237Z,20.90
2019-06-10T07:45:47.931Z,21.00
2019-06-10T07:48:17.243Z,21.10
2019-06-10T07:50:46.744Z,21.40
2019-06-10T07:53:17.188Z,21.50
2019-06-10T07:55:47.644Z,21.80
2019-06-10T07:58:17.147Z,22.20
2019-06-10T08:00:48.531Z,22.40
2019-06-10T08:03:17.842Z,22.70
2019-06-10T08:05:47.463Z,22.70
2019-06-10T08:08:16.941Z,22.90
2019-06-10T08:10:48.175Z,23.00
2019-06-10T08:13:17.804Z,22.90
2019-06-10T08:15:48.393Z,22.80
2019-06-10T08:18:18.144Z,22.70
2019-06-10T08:20:48.942Z,23.00
2019-06-10T08:23:20.164Z,23.10
2019-06-10T08:25:54.582Z,23.30
2019-06-10T08:28:23.050Z,23.40
2019-06-10T08:30:53.220Z,23.70
2019-06-10T08:33:23.089Z,23.80
2019-06-10T08:35:59.381Z,23.80
2019-06-10T08:38:23.811Z,23.70
2019-06-10T08:40:53.312Z,23.50
2019-06-10T08:43:22.870Z,23.60
2019-06-10T08:45:52.990Z,23.70
2019-06-10T08:48:23.086Z,23.90
2019-06-10T08:50:53.820Z,24.10
2019-06-10T08:53:23.336Z,24.30
2019-06-10T08:55:53.927Z,24.60
2019-06-10T08:58:23.472Z,25.20
2019-06-10T09:00:53.828Z,25.40
2019-06-10T09:03:23.616Z,25.30
2019-06-10T09:05:55.145Z,25.20
2019-06-10T09:08:26.000Z,25.10
2019-06-10T09:10:57.464Z,24.80
2019-06-10T09:13:27.884Z,24.60
2019-06-10T09:16:10.859Z,24.40
2019-06-10T09:18:28.753Z,24.40
2019-06-10T09:20:58.246Z,24.60
2019-06-10T09:23:27.762Z,24.80
2019-06-10T09:25:57.895Z,25.00
2019-06-10T09:28:27.496Z,25.50
2019-06-10T09:30:59.325Z,26.10
2019-06-10T09:33:28.185Z,26.30
2019-06-10T09:35:57.708Z,26.40
2019-06-10T09:38:27.256Z,26.90
2019-06-10T09:41:02.126Z,27.20
2019-06-10T09:43:28.028Z,27.20
2019-06-10T09:45:57.669Z,26.80
2019-06-10T09:48:28.868Z,27.30
2019-06-10T09:50:59.218Z,27.70
2019-06-10T09:53:38.922Z,27.90
2019-06-10T09:56:00.206Z,28.00
2019-06-10T09:58:32.698Z,27.90
2019-06-10T10:01:03.336Z,27.40
2019-06-10T10:03:33.248Z,27.20
2019-06-10T10:06:13.658Z,27.10
2019-06-10T10:08:35.528Z,27.10
2019-06-10T10:11:05.103Z,27.40
2019-06-10T10:13:35.311Z,27.60
2019-06-10T10:16:05.593Z,28.00
2019-06-10T10:18:35.381Z,28.30
2019-06-10T10:21:04.964Z,28.50
2019-06-10T10:23:50.307Z,28.50
2019-06-10T10:26:05.788Z,28.50
2019-06-10T10:28:35.325Z,28.30
2019-06-10T10:31:04.960Z,28.10
2019-06-10T10:33:34.452Z,27.90
2019-06-10T10:36:03.968Z,27.80
2019-06-10T10:38:34.896Z,27.60
2019-06-10T10:41:07.778Z,27.40
2019-06-10T10:43:38.020Z,27.20
2019-06-10T10:46:07.864Z,26.90
2019-06-10T10:48:37.363Z,27.00
2019-06-10T10:51:06.882Z,26.90
2019-06-10T10:53:36.420Z,27.10
2019-06-10T10:56:06.038Z,27.30
2019-06-10T10:58:35.504Z,27.30
2019-06-10T11:01:05.204Z,27.60
2019-06-10T11:03:34.783Z,27.60
2019-06-10T11:06:04.424Z,27.60
2019-06-10T11:08:34.025Z,27.80
2019-06-10T11:11:05.212Z,28.30
2019-06-10T11:13:36.249Z,28.70
2019-06-10T11:16:07.702Z,28.80
2019-06-10T11:18:37.251Z,28.50
2019-06-10T11:21:06.795Z,28.50
2019-06-10T11:23:36.372Z,28.60
2019-06-10T11:26:05.865Z,28.30
2019-06-10T11:28:35.350Z,28.30
2019-06-10T11:31:05.383Z,28.30
2019-06-10T11:33:34.909Z,28.10
2019-06-10T11:36:04.625Z,28.50
2019-06-10T11:38:35.132Z,28.50
2019-06-10T11:41:04.835Z,28.40
2019-06-10T11:43:34.318Z,28.70
2019-06-10T11:46:07.471Z,28.70
2019-06-10T11:48:35.053Z,28.90
2019-06-10T11:51:05.029Z,29.00
2019-06-10T11:53:34.838Z,29.30
2019-06-10T11:56:04.735Z,29.50
2019-06-10T11:58:34.270Z,29.40
2019-06-10T12:01:04.207Z,29.60
2019-06-10T12:03:33.888Z,29.80
2019-06-10T12:06:05.227Z,29.90
2019-06-10T12:08:34.799Z,29.70
2019-06-10T12:11:04.549Z,29.60
2019-06-10T12:13:34.781Z,29.40
2019-06-10T12:17:05.151Z,29.00
2019-06-10T12:18:35.593Z,29.10
2019-06-10T12:21:05.263Z,29.40
2019-06-10T12:23:34.780Z,29.50
2019-06-10T12:26:05.207Z,29.90
2019-06-10T12:28:35.059Z,30.20
2019-06-10T12:31:07.219Z,30.40
2019-06-10T12:33:35.825Z,30.70
2019-06-10T12:36:07.256Z,30.90
2019-06-10T12:38:37.013Z,30.70
2019-06-10T12:41:09.019Z,30.90
2019-06-10T12:43:37.680Z,30.80
2019-06-10T12:46:07.241Z,30.30
2019-06-10T12:48:36.719Z,29.80
2019-06-10T12:51:09.331Z,29.60
2019-06-10T12:53:37.560Z,29.40
2019-06-10T12:56:10.540Z,29.30
2019-06-10T12:58:38.204Z,29.50
2019-06-10T13:01:08.150Z,29.60
2019-06-10T13:03:37.771Z,29.90
2019-06-10T13:06:09.497Z,29.80
2019-06-10T13:08:38.792Z,30.00
2019-06-10T13:11:08.436Z,30.10
2019-06-10T13:13:37.976Z,30.20
2019-06-10T13:16:09.168Z,30.30
2019-06-10T13:18:38.664Z,30.30
2019-06-10T13:21:13.357Z,30.00
2019-06-10T13:23:39.551Z,29.70
2019-06-10T13:26:15.060Z,29.50
2019-06-10T13:28:43.100Z,29.20
2019-06-10T13:31:11.459Z,28.90
2019-06-10T13:33:42.894Z,28.60
2019-06-10T13:36:12.931Z,28.30
2019-06-10T13:38:42.910Z,28.20
2019-06-10T13:41:12.615Z,28.00
2019-06-10T13:43:43.423Z,28.00
2019-06-10T13:46:13.185Z,27.90
2019-06-10T13:48:43.764Z,27.90
2019-06-10T13:51:15.640Z,27.90
2019-06-10T13:53:46.220Z,27.80
2019-06-10T13:56:38.249Z,27.70
2019-06-10T13:58:47.244Z,27.60
2019-06-10T14:01:21.637Z,27.70
2019-06-10T14:03:47.964Z,27.70
2019-06-10T14:06:37.011Z,27.70
2019-06-10T14:08:48.712Z,27.80
2019-06-10T14:11:19.009Z,27.80
2019-06-10T14:13:48.755Z,27.80
2019-06-10T14:16:18.266Z,27.90
2019-06-10T14:18:47.833Z,27.90
2019-06-10T14:21:18.431Z,27.90
2019-06-10T14:23:48.332Z,27.90
2019-06-10T14:26:25.609Z,27.90
2019-06-10T14:28:49.037Z,27.90
2019-06-10T14:31:38.368Z,27.90
2019-06-10T14:33:49.714Z,27.90
2019-06-10T14:36:22.166Z,27.90
2019-06-10T14:38:51.352Z,27.90
2019-06-10T14:41:23.035Z,27.90
2019-06-10T14:43:53.143Z,27.90
2019-06-10T14:46:23.180Z,27.90
2019-06-10T14:48:53.321Z,27.90
2019-06-10T14:51:23.139Z,28.00
2019-06-10T14:53:52.873Z,28.00
2019-06-10T14:56:23.410Z,27.90
2019-06-10T14:58:54.189Z,27.90
2019-06-10T15:01:25.433Z,27.80
2019-06-10T15:03:54.887Z,27.90
2019-06-10T15:06:24.366Z,27.90
2019-06-10T15:08:53.892Z,27.90
2019-06-10T15:11:26.677Z,27.90
2019-06-10T15:13:54.940Z,27.90
2019-06-10T15:16:24.485Z,27.90
2019-06-10T15:18:54.039Z,27.80
2019-06-10T15:21:23.556Z,27.50
2019-06-10T15:23:53.040Z,27.50
2019-06-10T15:26:22.525Z,27.30
2019-06-10T15:28:52.307Z,27.20
2019-06-10T15:31:22.567Z,27.10
2019-06-10T15:33:52.562Z,27.00
2019-06-10T15:36:22.230Z,27.00
2019-06-10T15:38:52.592Z,26.90
2019-06-10T15:41:24.515Z,26.90
2019-06-10T15:43:53.488Z,26.60
2019-06-10T15:46:22.971Z,26.50
2019-06-10T15:48:54.142Z,26.30
2019-06-10T15:51:26.103Z,26.10
2019-06-10T15:53:54.861Z,25.80
2019-06-10T15:56:37.378Z,25.40
2019-06-10T15:58:55.604Z,24.20
2019-06-10T16:01:27.165Z,23.30
2019-06-10T16:03:57.312Z,22.80
2019-06-10T16:06:27.741Z,22.40
2019-06-10T16:08:57.247Z,21.50
2019-06-10T16:11:27.274Z,21.00
2019-06-10T16:13:57.142Z,20.90
2019-06-10T16:16:26.660Z,20.70
2019-06-10T16:18:56.160Z,20.60
2019-06-10T16:21:25.689Z,20.50
2019-06-10T16:23:55.348Z,20.50
2019-06-10T16:26:26.793Z,20.60
2019-06-10T16:28:56.108Z,20.70
2019-06-10T16:31:27.333Z,20.80
2019-06-10T16:33:56.775Z,20.80
2019-06-10T16:36:28.019Z,21.00
2019-06-10T16:38:58.234Z,21.20
2019-06-10T16:41:28.177Z,21.10
2019-06-10T16:43:57.855Z,20.90
2019-06-10T16:46:27.385Z,20.80
2019-06-10T16:48:56.992Z,20.80
2019-06-10T16:51:26.497Z,20.80
2019-06-10T16:53:56.026Z,20.70
2019-06-10T16:56:26.413Z,20.50
2019-06-10T16:58:56.704Z,20.20
2019-06-10T17:01:28.633Z,20.10
2019-06-10T17:03:57.522Z,20.10
2019-06-10T17:06:27.021Z,20.10
2019-06-10T17:08:56.511Z,20.10
2019-06-10T17:11:28.793Z,20.10
2019-06-10T17:13:57.338Z,20.00
2019-06-10T17:16:29.246Z,20.00
2019-06-10T17:18:58.019Z,20.10
2019-06-10T17:21:30.398Z,20.30
2019-06-10T17:23:58.788Z,20.40
2019-06-10T17:26:33.426Z,20.50
2019-06-10T17:28:59.515Z,20.60
2019-06-10T17:31:32.127Z,20.70
2019-06-10T17:34:02.723Z,20.70
2019-06-10T17:36:35.137Z,20.80
2019-06-10T17:39:05.464Z,20.60
2019-06-10T17:41:36.419Z,20.20
2019-06-10T17:44:06.010Z,20.00
2019-06-10T17:46:36.547Z,19.90
2019-06-10T17:49:06.047Z,19.70
2019-06-10T17:51:35.847Z,19.60
2019-06-10T17:54:05.524Z,19.50
2019-06-10T17:56:36.363Z,19.60
2019-06-10T17:59:05.991Z,19.50
2019-06-10T18:01:35.738Z,19.50
2019-06-10T18:04:05.339Z,19.40
2019-06-10T18:06:36.480Z,19.30
2019-06-10T18:09:07.132Z,19.20
2019-06-10T18:11:36.632Z,19.20
2019-06-10T18:14:06.223Z,19.10
2019-06-10T18:16:36.622Z,19.00
2019-06-10T18:19:06.327Z,19.00
2019-06-10T18:21:36.445Z,19.00
2019-06-10T18:24:08.539Z,19.00
2019-06-10T18:26:38.327Z,18.90
2019-06-10T18:29:09.208Z,18.90
2019-06-10T18:31:39.253Z,18.90
2019-06-10T18:34:08.816Z,18.80
2019-06-10T18:36:39.672Z,18.80
2019-06-10T18:39:09.317Z,18.90
2019-06-10T18:41:40.132Z,18.90
2019-06-10T18:44:19.772Z,18.70
2019-06-10T18:46:43.360Z,18.70
2019-06-10T18:49:13.226Z,18.50
2019-06-10T18:51:43.552Z,18.30
2019-06-10T18:54:13.341Z,18.20
2019-06-10T18:56:43.849Z,18.00
2019-06-10T18:59:17.925Z,18.00
2019-06-10T19:01:44.538Z,18.10
2019-06-10T19:04:14.013Z,18.00
2019-06-10T19:06:43.493Z,18.10
2019-06-10T19:09:13.073Z,18.00
2019-06-10T19:11:43.396Z,18.10
2019-06-10T19:14:13.111Z,18.10
2019-06-10T19:16:43.079Z,18.00
2019-06-10T19:19:12.865Z,18.00
2019-06-10T19:21:44.154Z,17.90
2019-06-10T19:24:13.871Z,17.70
2019-06-10T19:26:45.152Z,17.70
2019-06-10T19:29:27.508Z,17.70
2019-06-10T19:31:46.449Z,17.80
2019-06-10T19:34:16.088Z,17.80
2019-06-10T19:36:45.585Z,17.80
2019-06-10T19:39:15.064Z,17.80
2019-06-10T19:41:47.158Z,17.60
2019-06-10T19:44:16.092Z,17.50
2019-06-10T19:46:45.569Z,17.40
2019-06-10T19:49:15.051Z,17.30
2019-06-10T19:51:46.774Z,17.20
2019-06-10T19:54:15.755Z,17.30
2019-06-10T19:56:45.230Z,17.30
2019-06-10T19:59:14.728Z,17.30
2019-06-10T20:01:46.754Z,17.30
2019-06-10T20:04:18.035Z,17.40
2019-06-10T20:06:50.438Z,17.30
2019-06-10T20:09:18.266Z,17.20
2019-06-10T20:11:47.833Z,17.10
2019-06-10T20:14:17.332Z,17.00
2019-06-10T20:16:48.076Z,17.00
2019-06-10T20:19:17.729Z,17.00
2019-06-10T20:21:48.764Z,17.00
2019-06-10T20:24:18.492Z,17.00
2019-06-10T20:26:48.205Z,17.00
2019-06-10T20:29:18.143Z,17.00
2019-06-10T20:31:48.956Z,17.00
2019-06-10T20:34:19.659Z,17.00
2019-06-10T20:36:49.853Z,17.00
2019-06-10T20:39:19.378Z,17.00
2019-06-10T20:41:52.361Z,17.10
2019-06-10T20:44:22.891Z,17.10
2019-06-10T20:46:53.001Z,17.10
2019-06-10T20:49:22.702Z,17.10
2019-06-10T20:52:06.643Z,17.10
2019-06-10T20:54:24.364Z,17.00
2019-06-10T20:56:53.865Z,17.10
2019-06-10T20:59:26.094Z,17.10
2019-06-10T21:01:54.893Z,17.10
2019-06-10T21:04:24.575Z,17.10
2019-06-10T21:06:54.166Z,17.10
2019-06-10T21:09:25.300Z,17.10
2019-06-10T21:11:54.856Z,17.10
2019-06-10T21:14:24.676Z,17.10
2019-06-10T21:16:54.185Z,17.10
2019-06-10T21:19:23.724Z,17.10
2019-06-10T21:21:54.685Z,17.00
2019-06-10T21:24:24.560Z,17.00
2019-06-10T21:26:54.936Z,17.10
2019-06-10T21:29:24.572Z,17.00
2019-06-10T21:31:54.918Z,17.00
2019-06-10T21:34:24.833Z,16.90
2019-06-10T21:36:54.572Z,17.00
2019-06-10T21:39:24.296Z,16.90
2019-06-10T21:41:54.652Z,16.90
2019-06-10T21:44:25.151Z,16.90
2019-06-10T21:46:54.686Z,16.90
2019-06-10T21:49:24.244Z,16.80
2019-06-10T21:51:56.878Z,16.80
2019-06-10T21:54:25.023Z,16.70
2019-06-10T21:56:55.623Z,16.80
2019-06-10T21:59:25.596Z,16.70
2019-06-10T22:01:55.168Z,16.70
2019-06-10T22:04:24.679Z,16.60
2019-06-10T22:06:55.936Z,16.60
2019-06-10T22:09:25.627Z,16.70
2019-06-10T22:11:55.846Z,16.70
2019-06-10T22:14:25.964Z,16.70
2019-06-10T22:16:56.462Z,16.60
2019-06-10T22:19:27.111Z,16.60
2019-06-10T22:21:56.877Z,16.50
2019-06-10T22:24:26.535Z,16.40
2019-06-10T22:26:56.029Z,16.40
2019-06-10T22:29:25.612Z,16.40
2019-06-10T22:31:57.058Z,16.40
2019-06-10T22:34:26.543Z,16.30
2019-06-10T22:36:57.569Z,16.30
2019-06-10T22:39:27.321Z,16.20
2019-06-10T22:41:57.117Z,16.20
2019-06-10T22:44:27.024Z,16.20
2019-06-10T22:46:57.203Z,16.20
2019-06-10T22:49:26.974Z,16.20
2019-06-10T22:51:58.430Z,16.20
2019-06-10T22:54:27.733Z,16.20
2019-06-10T22:56:58.419Z,16.10
2019-06-10T22:59:28.196Z,16.20
2019-06-10T23:01:58.782Z,16.20
2019-06-10T23:04:28.883Z,16.20
2019-06-10T23:06:59.628Z,16.20
2019-06-10T23:09:29.629Z,16.20
2019-06-10T23:11:59.265Z,16.20
2019-06-10T23:14:28.818Z,16.20
2019-06-10T23:16:59.916Z,16.20
2019-06-10T23:19:29.498Z,16.10
2019-06-10T23:22:00.009Z,16.10
2019-06-10T23:24:32.212Z,16.00
2019-06-10T23:27:03.030Z,16.00
2019-06-10T23:29:32.992Z,16.00
2019-06-10T23:32:06.749Z,15.90
2019-06-10T23:34:34.116Z,15.90
2019-06-10T23:37:03.786Z,15.80
2019-06-10T23:39:33.642Z,15.80
2019-06-10T23:42:04.263Z,15.80
2019-06-10T23:44:34.222Z,15.80
2019-06-10T23:47:04.169Z,15.80
2019-06-10T23:49:33.901Z,15.80
2019-06-10T23:52:05.370Z,15.80
2019-06-10T23:54:34.625Z,15.80
2019-06-10T23:57:05.977Z,15.80
2019-06-10T23:59:35.314Z,15.80
